Time;durP1;ratioP1;P1;durP2;ratioP2;P2;SDS_P1;SDS_P2;PMS_P1;PMS_P2;Temp;Humidity;BMP_temperature;BMP_pressure;BME280_temperature;BME280_humidity;BME280_pressure;Samples;Min_cycle;Max_cycle;Signal;HPM_P1;HPM_P2
2021/04/29 00:02:10;;;;;;;;;;;;;;;8.58;45.38;100860.28;5036370;28;20293;-73
2021/04/29 00:04:35;;;;;;;;;;;;;;;8.57;45.33;100866.81;5050904;28;19917;-73
2021/04/29 00:07:00;;;;;;;;;;;;;;;8.54;45.22;100867.28;5048658;28;19913;-73
2021/04/29 00:09:25;;;;;;;;;;;;;;;8.55;45.46;100858.09;5018245;28;19920;-74
2021/04/29 00:11:51;;;;;;;;;;;;;;;8.52;45.45;100859.41;5033649;28;19913;-74
2021/04/29 00:14:16;;;;;;;;;;;;;;;8.51;45.21;100856.94;5031424;28;19918;-73
2021/04/29 00:16:42;;;;;;;;;;;;;;;8.47;45.45;100850.41;5030203;28;20518;-73
2021/04/29 00:19:07;;;;;;;;;;;;;;;8.43;45.21;100852.81;5028066;28;19928;-74
2021/04/29 00:21:32;;;;;;;;;;;;;;;8.40;45.21;100845.16;5012756;28;19956;-74
2021/04/29 00:23:58;;;;;;;;;;;;;;;8.38;45.22;100844.59;5033486;28;20374;-73
2021/04/29 00:26:23;;;;;;;;;;;;;;;8.32;45.33;100846.44;5027295;28;20289;-74
2021/04/29 00:28:48;;;;;;;;;;;;;;;8.27;45.25;100840.16;5021787;28;19912;-74
2021/04/29 00:31:13;;;;;;;;;;;;;;;8.20;45.64;100845.75;5034900;28;19913;-74
2021/04/29 00:33:39;;;;;;;;;;;;;;;8.15;45.70;100835.66;5031698;28;19920;-73
2021/04/29 00:36:04;;;;;;;;;;;;;;;8.09;45.79;100835.88;5014239;28;19924;-73
2021/04/29 00:38:29;;;;;;;;;;;;;;;8.04;46.10;100838.53;5027778;28;20349;-73
2021/04/29 00:40:55;;;;;;;;;;;;;;;7.98;46.10;100835.75;5040469;28;19919;-73
2021/04/29 00:43:20;;;;;;;;;;;;;;;7.93;45.92;100837.59;5034812;28;20024;-73
2021/04/29 00:45:46;;;;;;;;;;;;;;;7.88;46.29;100830.22;5031080;28;19916;-73
2021/04/29 00:48:11;;;;;;;;;;;;;;;7.84;46.18;100833.72;5025366;28;19913;-73
2021/04/29 00:50:36;;;;;;;;;;;;;;;7.79;46.37;100827.16;5048296;28;19917;-73
2021/04/29 00:53:02;;;;;;;;;;;;;;;7.76;46.39;100832.28;5029362;28;19913;-73
2021/04/29 00:55:27;;;;;;;;;;;;;;;7.73;46.62;100830.06;5032555;28;19920;-73
2021/04/29 00:57:52;;;;;;;;;;;;;;;7.70;46.84;100830.56;5043050;28;20223;-74
2021/04/29 01:00:18;;;;;;;;;;;;;;;7.66;46.68;100827.53;5046448;28;19967;-73
2021/04/29 01:02:44;;;;;;;;;;;;;;;7.64;46.88;100827.00;5017135;28;19921;-73
2021/04/29 01:05:14;;;;;;;;;;;;;;;7.62;46.85;100828.31;5038824;28;20286;-73
2021/04/29 01:07:40;;;;;;;;;;;;;;;7.60;47.44;100827.72;5026269;28;19913;-73
2021/04/29 01:10:18;;;;;;;;;;;;;;;7.57;47.59;100823.63;5015133;28;19913;-73
2021/04/29 01:12:58;;;;;;;;;;;;;;;7.54;47.74;100827.66;5032175;28;20306;-74
2021/04/29 01:15:23;;;;;;;;;;;;;;;7.52;47.90;100829.00;5017962;28;19924;-72
2021/04/29 01:17:49;;;;;;;;;;;;;;;7.51;47.51;100824.66;5029639;28;19921;-73
2021/04/29 01:20:14;;;;;;;;;;;;;;;7.47;47.71;100827.03;5053448;28;19913;-73
2021/04/29 01:22:43;;;;;;;;;;;;;;;7.44;47.46;100824.81;5026543;28;20080;-75
2021/04/29 01:25:11;;;;;;;;;;;;;;;7.39;47.84;100827.47;5030750;28;20004;-74
2021/04/29 01:27:36;;;;;;;;;;;;;;;7.36;47.79;100825.25;5024267;28;19921;-73
2021/04/29 01:30:02;;;;;;;;;;;;;;;7.33;47.51;100825.75;5048197;28;19917;-74
2021/04/29 01:32:27;;;;;;;;;;;;;;;7.29;48.29;100827.34;5033088;28;19913;-74
2021/04/29 01:34:53;;;;;;;;;;;;;;;7.25;48.12;100821.59;5033673;28;19916;-73
2021/04/29 01:37:18;;;;;;;;;;;;;;;7.22;48.13;100821.28;4991898;28;19952;-74
2021/04/29 01:39:43;;;;;;;;;;;;;;;7.19;48.40;100819.06;5048289;28;19995;-74
2021/04/29 01:42:09;;;;;;;;;;;;;;;7.16;48.43;100816.88;5047243;28;19917;-73
2021/04/29 01:44:34;;;;;;;;;;;;;;;7.13;48.68;100817.38;5031581;28;19917;-73
2021/04/29 01:46:59;;;;;;;;;;;;;;;7.10;48.89;100814.09;5016621;28;19921;-74
2021/04/29 01:49:24;;;;;;;;;;;;;;;7.06;48.79;100812.09;5027324;28;19924;-74
2021/04/29 01:51:50;;;;;;;;;;;;;;;7.02;48.78;100813.69;5018835;28;20396;-74
2021/04/29 01:54:16;;;;;;;;;;;;;;;6.98;49.14;100824.19;5042047;28;19920;-73
2021/04/29 01:56:42;;;;;;;;;;;;;;;6.95;49.04;100811.13;5011346;28;19914;-73
2021/04/29 01:59:07;;;;;;;;;;;;;;;6.92;48.90;100813.53;5030780;28;19917;-73
2021/04/29 02:01:34;;;;;;;;;;;;;;;6.88;49.37;100807.81;5006402;28;20422;-72
2021/04/29 02:03:59;;;;;;;;;;;;;;;6.84;49.29;100806.66;5028463;28;19988;-73
2021/04/29 02:06:24;;;;;;;;;;;;;;;6.85;49.15;100813.72;5050316;28;19993;-74
2021/04/29 02:08:49;;;;;;;;;;;;;;;6.80;49.34;100808.22;5029091;28;19962;-73
2021/04/29 02:11:16;;;;;;;;;;;;;;;6.75;49.25;100800.00;5040346;28;20356;-73
2021/04/29 02:13:42;;;;;;;;;;;;;;;6.71;49.34;100801.56;5018787;28;19956;-73
2021/04/29 02:16:12;;;;;;;;;;;;;;;6.66;49.41;100803.13;5046827;28;20429;-73
2021/04/29 02:18:38;;;;;;;;;;;;;;;6.63;49.36;100803.63;5028552;28;20303;-73
2021/04/29 02:21:03;;;;;;;;;;;;;;;6.60;49.38;100798.72;5030406;28;20290;-73
2021/04/29 02:23:28;;;;;;;;;;;;;;;6.57;49.28;100803.78;5009294;28;19929;-73
2021/04/29 02:25:55;;;;;;;;;;;;;;;6.53;49.48;100800.75;5028297;28;20047;-73
2021/04/29 02:28:20;;;;;;;;;;;;;;;6.49;49.26;100796.06;5046005;28;19917;-73
2021/04/29 02:30:45;;;;;;;;;;;;;;;6.44;49.27;100803.06;5026769;28;19959;-72
2021/04/29 02:33:11;;;;;;;;;;;;;;;6.41;50.04;100806.28;5028804;28;19913;-73
2021/04/29 02:35:36;;;;;;;;;;;;;;;6.40;50.04;100803.78;5043392;28;20070;-74
2021/04/29 02:38:01;;;;;;;;;;;;;;;6.36;50.03;100795.34;5046157;28;19920;-74
2021/04/29 02:40:27;;;;;;;;;;;;;;;6.33;49.85;100800.41;5036143;28;19913;-74
2021/04/29 02:42:52;;;;;;;;;;;;;;;6.31;49.83;100797.16;5048205;28;19917;-73
2021/04/29 02:45:17;;;;;;;;;;;;;;;6.29;50.02;100805.50;5046676;28;20009;-73
2021/04/29 02:47:46;;;;;;;;;;;;;;;6.28;49.92;100794.94;5040143;28;20400;-74
2021/04/29 02:50:12;;;;;;;;;;;;;;;6.27;50.09;100798.69;5054604;28;19913;-73
2021/04/29 02:52:38;;;;;;;;;;;;;;;6.25;49.96;100798.09;5029673;28;20007;-73
2021/04/29 02:55:04;;;;;;;;;;;;;;;6.22;50.14;100796.75;5005541;28;20007;-73
2021/04/29 02:57:29;;;;;;;;;;;;;;;6.19;50.15;100792.63;5032747;28;19920;-73
2021/04/29 02:59:54;;;;;;;;;;;;;;;6.18;50.37;100796.38;5030681;28;19924;-74
2021/04/29 03:02:20;;;;;;;;;;;;;;;6.15;50.17;100796.88;5028870;28;19917;-73
2021/04/29 03:04:45;;;;;;;;;;;;;;;6.15;50.66;100790.66;5012933;28;19999;-73
2021/04/29 03:07:10;;;;;;;;;;;;;;;6.12;50.86;100794.66;5026020;28;19918;-73
2021/04/29 03:09:36;;;;;;;;;;;;;;;6.13;50.80;100796.28;5013367;28;19967;-72
2021/04/29 03:12:01;;;;;;;;;;;;;;;6.09;50.64;100794.34;5029011;28;20365;-72
2021/04/29 03:14:26;;;;;;;;;;;;;;;6.08;50.80;100796.19;5029156;28;19913;-73
2021/04/29 03:16:51;;;;;;;;;;;;;;;6.06;50.84;100800.25;5047496;28;20295;-73
2021/04/29 03:19:17;;;;;;;;;;;;;;;6.05;50.67;100796.69;5030816;28;20333;-73
2021/04/29 03:21:42;;;;;;;;;;;;;;;6.04;50.65;100799.66;5007135;28;19913;-72
2021/04/29 03:24:08;;;;;;;;;;;;;;;6.02;50.74;100797.19;5033439;28;19967;-74
2021/04/29 03:26:33;;;;;;;;;;;;;;;5.99;50.97;100792.25;5021123;28;21034;-73
2021/04/29 03:28:58;;;;;;;;;;;;;;;5.97;51.04;100791.69;5044182;28;19913;-73
2021/04/29 03:31:24;;;;;;;;;;;;;;;5.94;51.37;100789.47;5036355;28;19921;-73
2021/04/29 03:33:49;;;;;;;;;;;;;;;5.94;51.16;100789.47;5028734;28;19967;-72
2021/04/29 03:36:15;;;;;;;;;;;;;;;5.93;51.11;100794.06;5041091;28;19912;-73
2021/04/29 03:38:41;;;;;;;;;;;;;;;5.95;51.03;100796.53;5013089;28;19912;-74
2021/04/29 03:41:06;;;;;;;;;;;;;;;5.97;50.96;100797.09;5036011;28;19966;-72
2021/04/29 03:43:32;;;;;;;;;;;;;;;5.97;51.04;100797.09;5051661;28;19925;-73
2021/04/29 03:45:57;;;;;;;;;;;;;;;5.98;50.93;100801.44;5014115;28;20016;-73
2021/04/29 03:48:23;;;;;;;;;;;;;;;5.98;50.73;100806.88;5009591;28;20202;-73
2021/04/29 03:50:48;;;;;;;;;;;;;;;5.99;50.64;100819.31;5019563;28;19913;-73
2021/04/29 03:53:13;;;;;;;;;;;;;;;5.98;50.61;100814.97;5013554;28;19917;-73
2021/04/29 03:55:39;;;;;;;;;;;;;;;5.97;50.48;100803.34;5014531;28;19913;-72
2021/04/29 03:58:04;;;;;;;;;;;;;;;5.96;50.66;100815.22;5007260;28;19921;-72
2021/04/29 04:00:29;;;;;;;;;;;;;;;5.96;50.57;100817.09;5014104;28;19913;-73
2021/04/29 04:02:55;;;;;;;;;;;;;;;5.94;50.34;100817.34;5013402;28;19984;-72
2021/04/29 04:05:20;;;;;;;;;;;;;;;5.91;50.48;100811.56;5013472;28;19913;-73
2021/04/29 04:07:45;;;;;;;;;;;;;;;5.88;50.63;100812.06;4993729;28;19913;-74
2021/04/29 04:10:10;;;;;;;;;;;;;;;5.88;50.56;100817.47;5015874;28;20017;-74
2021/04/29 04:12:36;;;;;;;;;;;;;;;5.89;50.73;100813.69;5015018;28;20393;-73
2021/04/29 04:15:01;;;;;;;;;;;;;;;5.88;50.82;100806.63;5014382;28;19920;-74
2021/04/29 04:17:26;;;;;;;;;;;;;;;5.90;50.90;100818.03;5027925;28;19966;-74
2021/04/29 04:19:52;;;;;;;;;;;;;;;5.90;50.84;100815.34;5011875;28;19920;-73
2021/04/29 04:22:17;;;;;;;;;;;;;;;5.92;50.87;100813.19;5011395;28;19918;-73
2021/04/29 04:24:42;;;;;;;;;;;;;;;5.93;50.79;100806.75;5012031;28;20634;-74
2021/04/29 04:27:08;;;;;;;;;;;;;;;5.94;50.88;100814.63;5011758;28;19914;-73
2021/04/29 04:29:33;;;;;;;;;;;;;;;5.96;51.13;100814.41;5001215;28;20024;-73
2021/04/29 04:31:58;;;;;;;;;;;;;;;5.99;51.05;100803.09;5005034;28;19990;-73
2021/04/29 04:34:24;;;;;;;;;;;;;;;6.02;50.96;100810.72;5012916;28;19913;-74
2021/04/29 04:36:49;;;;;;;;;;;;;;;6.03;50.75;100804.25;5025465;28;19920;-73
2021/04/29 04:39:14;;;;;;;;;;;;;;;6.05;50.89;100804.81;5013221;28;19939;-73
2021/04/29 04:41:39;;;;;;;;;;;;;;;6.08;50.87;100809.72;5008933;28;20267;-73
2021/04/29 04:44:05;;;;;;;;;;;;;;;6.12;51.11;100816.31;5012608;28;19917;-74
2021/04/29 04:46:30;;;;;;;;;;;;;;;6.14;51.08;100806.06;5015765;28;19921;-74
2021/04/29 04:48:55;;;;;;;;;;;;;;;6.17;51.00;100811.00;5040149;28;19963;-74
2021/04/29 04:51:20;;;;;;;;;;;;;;;6.23;51.07;100812.72;5007655;28;19917;-74
2021/04/29 04:53:46;;;;;;;;;;;;;;;6.27;50.79;100815.75;5005045;28;19999;-73
2021/04/29 04:56:11;;;;;;;;;;;;;;;6.33;51.12;100819.38;5005065;28;19913;-73
2021/04/29 04:58:36;;;;;;;;;;;;;;;6.37;50.76;100825.94;5010709;28;20425;-72
2021/04/29 05:01:02;;;;;;;;;;;;;;;6.42;50.75;100816.03;5035999;28;20066;-73
2021/04/29 05:03:27;;;;;;;;;;;;;;;6.47;50.77;100826.13;5016684;28;19993;-73
2021/04/29 05:05:52;;;;;;;;;;;;;;;6.48;51.11;100825.06;5007305;28;19913;-74
2021/04/29 05:08:18;;;;;;;;;;;;;;;6.51;51.09;100821.84;5005293;28;19925;-73
2021/04/29 05:10:43;;;;;;;;;;;;;;;6.55;51.06;100819.50;5004517;28;19921;-73
2021/04/29 05:13:08;;;;;;;;;;;;;;;6.55;51.43;100822.19;5008863;28;19913;-74
2021/04/29 05:15:35;;;;;;;;;;;;;;;6.54;51.53;100815.94;5004671;28;19922;-72
2021/04/29 05:18:00;;;;;;;;;;;;;;;6.57;51.67;100820.84;5007270;28;19917;-73
2021/04/29 05:20:26;;;;;;;;;;;;;;;6.61;51.60;100824.72;5038211;28;20327;-72
2021/04/29 05:22:51;;;;;;;;;;;;;;;6.67;51.63;100821.03;5020304;28;19918;-73
2021/04/29 05:25:17;;;;;;;;;;;;;;;6.72;51.52;100822.19;5006811;28;20366;-72
2021/04/29 05:27:42;;;;;;;;;;;;;;;6.76;51.67;100820.63;4997790;28;19921;-74
2021/04/29 05:30:08;;;;;;;;;;;;;;;6.78;51.63;100818.47;4999626;28;19966;-73
2021/04/29 05:32:33;;;;;;;;;;;;;;;6.80;51.76;100816.34;5004530;28;19917;-72
2021/04/29 05:34:58;;;;;;;;;;;;;;;6.80;51.88;100824.47;5018117;28;20000;-73
2021/04/29 05:37:27;;;;;;;;;;;;;;;6.76;51.77;100818.72;5001352;28;20446;-73
2021/04/29 05:39:52;;;;;;;;;;;;;;;6.72;51.77;100824.91;5006310;28;19921;-73
2021/04/29 05:42:17;;;;;;;;;;;;;;;6.68;52.05;100819.13;5005258;28;20012;-73
2021/04/29 05:44:42;;;;;;;;;;;;;;;6.66;52.04;100822.09;5006455;28;20310;-70
2021/04/29 05:47:08;;;;;;;;;;;;;;;6.66;52.42;100819.41;5015579;28;19922;-72
2021/04/29 05:49:33;;;;;;;;;;;;;;;6.66;52.59;100818.59;5009712;28;19917;-72
2021/04/29 05:51:58;;;;;;;;;;;;;;;6.72;52.47;100822.19;5006988;28;19913;-72
2021/04/29 05:54:24;;;;;;;;;;;;;;;6.77;52.24;100824.97;5009092;28;19933;-71
2021/04/29 05:56:49;;;;;;;;;;;;;;;6.83;52.30;100829.41;5024522;28;19920;-72
2021/04/29 05:59:14;;;;;;;;;;;;;;;6.93;52.42;100824.16;5009149;28;20386;-72
2021/04/29 06:01:39;;;;;;;;;;;;;;;7.05;52.51;100826.75;5005260;28;19928;-71
2021/04/29 06:04:05;;;;;;;;;;;;;;;7.16;52.53;100819.56;5006523;28;19913;-72
2021/04/29 06:06:30;;;;;;;;;;;;;;;7.28;52.54;100821.13;5005917;28;19921;-72
2021/04/29 06:08:55;;;;;;;;;;;;;;;7.39;52.29;100822.03;5024048;28;19956;-72
2021/04/29 06:11:20;;;;;;;;;;;;;;;7.51;52.13;100820.03;5003760;28;19917;-72
2021/04/29 06:13:46;;;;;;;;;;;;;;;7.59;51.87;100821.50;5006678;28;19956;-72
2021/04/29 06:16:11;;;;;;;;;;;;;;;7.62;52.03;100812.84;5022955;28;19917;-72
2021/04/29 06:18:37;;;;;;;;;;;;;;;7.61;52.12;100826.66;5010466;28;19929;-71
2021/04/29 06:21:02;;;;;;;;;;;;;;;7.61;52.04;100818.50;5010235;28;19924;-71
2021/04/29 06:23:27;;;;;;;;;;;;;;;7.61;52.00;100830.22;5008766;28;20472;-71
2021/04/29 06:25:52;;;;;;;;;;;;;;;7.62;52.07;100826.41;5015648;28;19921;-72
2021/04/29 06:28:18;;;;;;;;;;;;;;;7.67;51.86;100823.75;5011371;28;20366;-71
2021/04/29 06:30:43;;;;;;;;;;;;;;;7.74;51.57;100828.97;5009473;28;20317;-71
2021/04/29 06:33:08;;;;;;;;;;;;;;;7.81;51.67;100824.19;5004890;28;19917;-71
2021/04/29 06:35:34;;;;;;;;;;;;;;;7.93;51.50;100827.56;5008049;28;19917;-71
2021/04/29 06:37:59;;;;;;;;;;;;;;;8.04;51.59;100825.78;5006750;28;20378;-72
2021/04/29 06:40:25;;;;;;;;;;;;;;;8.15;51.51;100830.22;5003485;28;20358;-72
2021/04/29 06:42:50;;;;;;;;;;;;;;;8.26;51.26;100831.16;5008990;28;19917;-71
2021/04/29 06:45:15;;;;;;;;;;;;;;;8.40;51.23;100832.44;5022034;28;20124;-69
2021/04/29 06:47:41;;;;;;;;;;;;;;;8.53;51.07;100825.72;5030865;28;19932;-70
2021/04/29 06:50:06;;;;;;;;;;;;;;;8.68;51.19;100832.38;5019801;28;19914;-71
2021/04/29 06:52:31;;;;;;;;;;;;;;;8.86;50.82;100824.59;5023956;28;19920;-71
2021/04/29 06:54:56;;;;;;;;;;;;;;;9.00;50.53;100825.00;5026292;28;19920;-69
2021/04/29 06:57:22;;;;;;;;;;;;;;;9.16;50.40;100816.91;5013202;28;19921;-70
2021/04/29 06:59:47;;;;;;;;;;;;;;;9.30;50.42;100821.63;5011016;28;19924;-69
2021/04/29 07:02:12;;;;;;;;;;;;;;;9.46;49.96;100813.53;5025572;28;20325;-71
2021/04/29 07:04:38;;;;;;;;;;;;;;;9.61;49.77;100813.59;5027485;28;19916;-69
2021/04/29 07:07:03;;;;;;;;;;;;;;;9.73;49.77;100816.06;5026117;28;19928;-71
2021/04/29 07:09:28;;;;;;;;;;;;;;;9.81;49.77;100814.75;5016332;28;19921;-71
2021/04/29 07:11:54;;;;;;;;;;;;;;;9.90;49.63;100811.25;5033926;28;19923;-72
2021/04/29 07:14:20;;;;;;;;;;;;;;;9.96;49.69;100810.16;5027998;28;19961;-72
2021/04/29 07:16:45;;;;;;;;;;;;;;;9.98;49.57;100818.03;5020579;28;19955;-69
2021/04/29 07:19:10;;;;;;;;;;;;;;;10.02;49.40;100819.16;5026913;28;20268;-70
2021/04/29 07:21:35;;;;;;;;;;;;;;;10.06;49.50;100817.53;5032814;28;19917;-73
2021/04/29 07:24:02;;;;;;;;;;;;;;;10.12;49.22;100816.47;5050319;28;19913;-73
2021/04/29 07:26:27;;;;;;;;;;;;;;;10.25;48.99;100811.56;5033199;28;19924;-73
2021/04/29 07:28:52;;;;;;;;;;;;;;;10.43;48.83;100819.25;5032843;28;19913;-75
2021/04/29 07:31:17;;;;;;;;;;;;;;;10.54;48.66;100809.97;5031049;28;19924;-73
2021/04/29 07:33:43;;;;;;;;;;;;;;;10.58;48.63;100816.50;5030905;28;19916;-72
2021/04/29 07:36:08;;;;;;;;;;;;;;;10.66;48.55;100809.69;5034316;28;20948;-72
2021/04/29 07:38:33;;;;;;;;;;;;;;;10.80;48.33;100804.50;5036494;28;19924;-72
2021/04/29 07:40:58;;;;;;;;;;;;;;;10.94;48.27;100805.59;5025796;28;19996;-73
2021/04/29 07:43:24;;;;;;;;;;;;;;;11.03;48.06;100805.84;5026847;28;19978;-73
2021/04/29 07:45:49;;;;;;;;;;;;;;;11.00;47.88;100807.19;5035605;28;20309;-72
2021/04/29 07:48:14;;;;;;;;;;;;;;;11.05;48.07;100798.19;5025762;28;19913;-73
2021/04/29 07:50:40;;;;;;;;;;;;;;;11.11;47.98;100803.34;5031680;28;19920;-73
2021/04/29 07:53:05;;;;;;;;;;;;;;;11.11;47.87;100800.63;5017814;28;20385;-73
2021/04/29 07:55:31;;;;;;;;;;;;;;;11.07;47.96;100807.72;5020959;28;19919;-76
2021/04/29 07:57:56;;;;;;;;;;;;;;;11.08;47.96;100795.72;5030786;28;20357;-75
2021/04/29 08:00:21;;;;;;;;;;;;;;;11.09;48.06;100804.72;5012016;28;20879;-74
2021/04/29 08:02:47;;;;;;;;;;;;;;;11.13;47.82;100802.25;5027901;28;19924;-75
2021/04/29 08:05:12;;;;;;;;;;;;;;;11.16;47.72;100794.34;5009280;28;19992;-74
2021/04/29 08:07:37;;;;;;;;;;;;;;;11.15;47.52;100797.34;5029092;28;19912;-72
2021/04/29 08:10:03;;;;;;;;;;;;;;;11.09;47.73;100791.06;5016086;28;19913;-72
2021/04/29 08:12:29;;;;;;;;;;;;;;;11.10;47.79;100796.28;5026147;28;20019;-73
2021/04/29 08:14:57;;;;;;;;;;;;;;;11.21;47.55;100785.31;5014531;28;20047;-71
2021/04/29 08:17:22;;;;;;;;;;;;;;;11.24;47.46;100784.75;5011837;28;19925;-71
2021/04/29 08:19:47;;;;;;;;;;;;;;;11.31;47.30;100785.28;5007543;28;19921;-69
2021/04/29 08:22:13;;;;;;;;;;;;;;;11.43;47.35;100783.06;5029066;28;20003;-70
2021/04/29 08:24:38;;;;;;;;;;;;;;;11.51;47.14;100784.38;5029692;28;20424;-71
2021/04/29 08:27:03;;;;;;;;;;;;;;;11.54;47.06;100784.66;5027792;28;19990;-66
2021/04/29 08:29:29;;;;;;;;;;;;;;;11.52;47.00;100786.81;5008410;28;19935;-67
2021/04/29 08:31:54;;;;;;;;;;;;;;;11.55;46.90;100780.00;5027732;28;19917;-67
2021/04/29 08:34:19;;;;;;;;;;;;;;;11.63;46.74;100781.31;5028119;28;20408;-67
2021/04/29 08:36:44;;;;;;;;;;;;;;;11.77;46.47;100777.69;5031557;28;19921;-67
2021/04/29 08:39:10;;;;;;;;;;;;;;;12.03;46.25;100776.72;5031735;28;19947;-67
2021/04/29 08:41:35;;;;;;;;;;;;;;;12.31;45.84;100765.06;5033771;28;19956;-67
2021/04/29 08:44:00;;;;;;;;;;;;;;;12.59;45.43;100768.09;5030934;28;20016;-67
2021/04/29 08:46:25;;;;;;;;;;;;;;;12.76;45.15;100771.19;5024893;28;19952;-67
2021/04/29 08:48:54;;;;;;;;;;;;;;;12.89;45.11;100776.00;5009605;28;19921;-67
2021/04/29 08:51:20;;;;;;;;;;;;;;;13.06;45.09;100777.47;5013951;28;20015;-67
2021/04/29 08:53:46;;;;;;;;;;;;;;;13.24;44.87;100782.19;5004487;28;20004;-67
2021/04/29 08:56:11;;;;;;;;;;;;;;;13.36;44.35;100775.50;5028639;28;19917;-68
2021/04/29 08:58:36;;;;;;;;;;;;;;;13.48;44.35;100771.25;5017681;28;19928;-67
2021/04/29 09:01:02;;;;;;;;;;;;;;;13.58;44.30;100772.22;5006699;28;19921;-70
2021/04/29 09:03:32;;;;;;;;;;;;;;;13.71;44.19;100772.31;5037368;28;19982;-70
2021/04/29 09:05:57;;;;;;;;;;;;;;;13.93;44.00;100773.66;5013773;28;19917;-70
2021/04/29 09:08:26;;;;;;;;;;;;;;;14.06;43.71;100763.88;5011556;28;20928;-70
2021/04/29 09:10:51;;;;;;;;;;;;;;;14.13;43.63;100767.88;5008872;28;20350;-70
2021/04/29 09:13:17;;;;;;;;;;;;;;;14.27;43.43;100769.81;5010724;28;19996;-69
2021/04/29 09:15:43;;;;;;;;;;;;;;;14.32;43.55;100777.97;5014652;28;19912;-71
2021/04/29 09:18:11;;;;;;;;;;;;;;;14.35;43.34;100766.41;5045227;28;19935;-71
2021/04/29 09:20:51;;;;;;;;;;;;;;;14.41;43.26;100771.53;5030940;28;19921;-71
2021/04/29 09:23:19;;;;;;;;;;;;;;;14.49;43.29;100755.50;5024951;28;20002;-70
2021/04/29 09:25:52;;;;;;;;;;;;;;;14.51;43.14;100753.25;5026637;28;19917;-70
2021/04/29 09:28:17;;;;;;;;;;;;;;;14.53;43.25;100760.09;5023997;28;20006;-71
2021/04/29 09:30:43;;;;;;;;;;;;;;;14.65;43.07;100756.88;5029652;28;19979;-70
2021/04/29 09:33:08;;;;;;;;;;;;;;;14.63;42.84;100751.69;5009306;28;19916;-72
2021/04/29 09:35:37;;;;;;;;;;;;;;;14.50;42.80;100755.19;5030274;28;19923;-70
2021/04/29 09:38:06;;;;;;;;;;;;;;;14.38;42.76;100754.84;5027068;28;20347;-71
2021/04/29 09:40:33;;;;;;;;;;;;;;;14.34;42.95;100754.63;5026351;28;19913;-71
2021/04/29 09:42:59;;;;;;;;;;;;;;;14.35;42.83;100738.97;5025639;28;19924;-71
2021/04/29 09:45:31;;;;;;;;;;;;;;;14.38;42.83;100735.66;5009524;28;19974;-71
2021/04/29 09:48:22;;;;;;;;;;;;;;;14.67;42.59;100740.91;5024257;28;19913;-71
2021/04/29 09:50:50;;;;;;;;;;;;;;;15.07;42.35;100727.53;5023076;28;19913;-70
2021/04/29 09:53:16;;;;;;;;;;;;;;;15.21;42.02;100727.53;5025202;28;19913;-70
2021/04/29 09:55:44;;;;;;;;;;;;;;;15.13;41.85;100728.25;5024386;28;19913;-70
2021/04/29 09:58:18;;;;;;;;;;;;;;;15.10;41.88;100735.97;5043351;28;19921;-70
2021/04/29 10:00:44;;;;;;;;;;;;;;;15.23;41.85;100731.59;5010129;28;20022;-70
2021/04/29 10:03:09;;;;;;;;;;;;;;;15.06;41.79;100731.41;5029792;28;20525;-69
2021/04/29 10:05:39;;;;;;;;;;;;;;;14.96;41.92;100721.44;5015703;28;20003;-68
2021/04/29 10:08:05;;;;;;;;;;;;;;;15.10;41.76;100733.22;5014489;28;19961;-69
2021/04/29 10:10:34;;;;;;;;;;;;;;;15.36;41.65;100732.72;5019816;28;20393;-69
2021/04/29 10:13:00;;;;;;;;;;;;;;;15.51;41.54;100724.13;5006725;28;19913;-69
2021/04/29 10:15:25;;;;;;;;;;;;;;;15.35;41.58;100725.56;5020035;28;20409;-68
2021/04/29 10:17:50;;;;;;;;;;;;;;;15.18;41.67;100720.72;5005988;28;19939;-70
2021/04/29 10:20:15;;;;;;;;;;;;;;;15.21;41.85;100725.59;5024963;28;19917;-70
2021/04/29 10:22:41;;;;;;;;;;;;;;;15.52;41.40;100727.69;5028404;28;19913;-69
2021/04/29 10:25:06;;;;;;;;;;;;;;;15.74;41.16;100715.94;5043250;28;19917;-70
2021/04/29 10:27:31;;;;;;;;;;;;;;;15.80;40.80;100717.47;5031974;28;19913;-67
2021/04/29 10:30:06;;;;;;;;;;;;;;;15.81;40.89;100713.59;5028599;28;19913;-66
2021/04/29 10:32:33;;;;;;;;;;;;;;;15.52;41.06;100712.03;5024758;28;19913;-67
2021/04/29 10:34:58;;;;;;;;;;;;;;;15.32;41.43;100695.97;5030230;28;19996;-67
2021/04/29 10:37:24;;;;;;;;;;;;;;;14.95;41.34;100706.09;5046645;28;20007;-66
2021/04/29 10:39:53;;;;;;;;;;;;;;;14.76;41.53;100699.84;5030805;28;19913;-67
2021/04/29 10:42:18;;;;;;;;;;;;;;;14.69;41.63;100699.47;5021182;28;19914;-66
2021/04/29 10:44:44;;;;;;;;;;;;;;;14.48;41.53;100701.72;5028761;28;20665;-67
2021/04/29 10:47:10;;;;;;;;;;;;;;;14.32;41.66;100690.22;5030394;28;19920;-67
2021/04/29 10:49:41;;;;;;;;;;;;;;;14.16;41.99;100693.25;5045244;28;20278;-66
2021/04/29 10:52:06;;;;;;;;;;;;;;;14.14;42.17;100684.50;5023672;28;19928;-71
2021/04/29 10:54:32;;;;;;;;;;;;;;;14.20;42.28;100688.78;5006953;28;19917;-70
2021/04/29 10:57:03;;;;;;;;;;;;;;;14.41;41.91;100694.72;5020813;28;20449;-70
2021/04/29 10:59:45;;;;;;;;;;;;;;;14.80;41.59;100696.22;5025587;28;19925;-70
2021/04/29 11:02:22;;;;;;;;;;;;;;;14.97;41.29;100690.09;5026215;28;19916;-69
2021/04/29 11:04:51;;;;;;;;;;;;;;;14.92;41.21;100687.47;5006214;28;20326;-69
2021/04/29 11:07:17;;;;;;;;;;;;;;;14.85;41.31;100681.59;5009947;28;19921;-70
2021/04/29 11:09:42;;;;;;;;;;;;;;;14.83;41.27;100678.31;5017525;28;19917;-70
2021/04/29 11:12:08;;;;;;;;;;;;;;;14.80;41.32;100684.44;5011871;28;20334;-70
2021/04/29 11:14:37;;;;;;;;;;;;;;;14.77;41.42;100683.09;5026529;28;19967;-70
2021/04/29 11:17:02;;;;;;;;;;;;;;;14.78;41.40;100679.22;5007549;28;19921;-70
2021/04/29 11:20:06;;;;;;;;;;;;;;;14.83;41.17;100679.13;5008482;28;20278;-68
2021/04/29 11:22:33;;;;;;;;;;;;;;;15.02;41.00;100676.28;4979163;28;20379;-70
2021/04/29 11:24:59;;;;;;;;;;;;;;;15.26;40.69;100686.22;4956361;28;19945;-70
2021/04/29 11:27:24;;;;;;;;;;;;;;;15.20;40.34;100681.97;5005503;28;20057;-69
2021/04/29 11:29:49;;;;;;;;;;;;;;;15.11;40.66;100673.63;5028984;28;19917;-70
2021/04/29 11:32:14;;;;;;;;;;;;;;;15.04;40.47;100673.25;5029970;28;19917;-69
2021/04/29 11:34:40;;;;;;;;;;;;;;;14.94;40.64;100677.00;5025084;28;19936;-69
2021/04/29 11:37:06;;;;;;;;;;;;;;;14.90;40.81;100667.75;5014885;28;19913;-69
2021/04/29 11:39:31;;;;;;;;;;;;;;;14.87;40.70;100668.38;5029268;28;19967;-69
2021/04/29 11:41:56;;;;;;;;;;;;;;;14.86;40.68;100675.78;5046890;28;20402;-69
2021/04/29 11:44:22;;;;;;;;;;;;;;;14.84;40.69;100675.28;5024288;28;19917;-69
2021/04/29 11:46:47;;;;;;;;;;;;;;;14.83;40.61;100672.84;5040787;28;19913;-69
2021/04/29 11:49:14;;;;;;;;;;;;;;;14.85;40.67;100665.13;5032833;28;19948;-69
2021/04/29 11:51:46;;;;;;;;;;;;;;;14.83;40.66;100667.34;5035451;28;19951;-70
2021/04/29 11:54:12;;;;;;;;;;;;;;;14.85;40.36;100665.13;5042037;28;19913;-68
2021/04/29 11:56:41;;;;;;;;;;;;;;;14.91;40.47;100669.38;5027317;28;19913;-70
2021/04/29 11:59:08;;;;;;;;;;;;;;;14.89;40.26;100660.63;5016257;28;19919;-72
2021/04/29 12:01:33;;;;;;;;;;;;;;;14.96;40.20;100654.75;5031848;28;20553;-66
2021/04/29 12:03:59;;;;;;;;;;;;;;;14.94;40.19;100652.28;5017301;28;19916;-67
2021/04/29 12:06:24;;;;;;;;;;;;;;;15.43;39.75;100647.94;5018596;28;19917;-67
2021/04/29 12:08:49;;;;;;;;;;;;;;;16.36;38.77;100649.25;5016442;28;19948;-67
2021/04/29 12:11:15;;;;;;;;;;;;;;;17.41;37.65;100650.41;5047831;28;20294;-67
2021/04/29 12:13:45;;;;;;;;;;;;;;;18.30;36.50;100648.03;5022775;28;19920;-66
2021/04/29 12:16:11;;;;;;;;;;;;;;;19.11;35.80;100649.00;5032973;28;19975;-67
2021/04/29 12:18:40;;;;;;;;;;;;;;;19.90;34.85;100645.31;5012024;28;20576;-67
2021/04/29 12:21:05;;;;;;;;;;;;;;;19.83;34.65;100644.22;5027668;28;19920;-67
2021/04/29 12:23:31;;;;;;;;;;;;;;;20.21;34.42;100646.78;5019270;28;19924;-67
2021/04/29 12:25:57;;;;;;;;;;;;;;;20.92;34.07;100642.03;5030936;28;19913;-69
2021/04/29 12:28:23;;;;;;;;;;;;;;;20.80;33.05;100643.66;5031775;28;19940;-68
2021/04/29 12:30:48;;;;;;;;;;;;;;;19.92;34.02;100648.53;5030714;28;19962;-67
2021/04/29 12:33:14;;;;;;;;;;;;;;;19.29;34.56;100643.03;5033642;28;20632;-68
2021/04/29 12:35:40;;;;;;;;;;;;;;;18.76;34.88;100640.91;5012430;28;20399;-68
2021/04/29 12:38:05;;;;;;;;;;;;;;;18.34;35.01;100637.97;5033444;28;19952;-67